Aviation Digital Data Service (ADDS)

Output produced by TAFs form (0752 UTC 25 March 2017)
found at http://www.aviationweather.gov/adds/tafs/
 
METAR text: RJSY 250700Z 30003KT 210V360 9999 FEW035 SCT070 05/M01 Q1021
Conditions at: RJSY (SHONAI , JP) observed 0700 UTC 25 March 2017
Temperature: 5.0°C (41°F)
Dewpoint: -1.0°C (30°F) [RH = 65%]
Pressure (altimeter): 30.15 inches Hg (1021.0 mb)
Winds: from the WNW (300 degrees) at 3 MPH (3 knots; 1.6 m/s)
Visibility: 6 or more miles (10+ km)
Ceiling: at least 12,000 feet AGL
Clouds: few clouds at 3500 feet AGL
scattered clouds at 7000 feet AGL
Weather: no significant weather observed at this time